Terminal Aerodrome Forecast
Issued by NWS Charleston, WV

Current Version | Previous Version | Text Only | Print | Product List | Glossary On
Versions: 1 2 3 4 5 6 7 8 9 10 11 12 13 14 15 16 17 18 19 20 21 22 23
309
FTUS41 KRLX 111135
TAFEKN
TAF
KEKN 111135Z 1112/1212 10003KT P6SM OVC060
     FM111600 15005KT P6SM OVC150
     FM120400 17007KT 5SM -RA OVC035
     FM120700 19007KT 2SM -RA OVC025
     FM121000 22008KT 3SM -RA OVC012=

USA.gov is the U.S. government's official web portal to all federal, state and local government web resources and services.